createdAt,value
2023-05-18T00:00:11.157Z,13.52
2023-05-18T00:02:59.373Z,13.52
2023-05-18T00:05:27.851Z,13.52
2023-05-18T00:07:57.012Z,13.49
2023-05-18T00:10:25.038Z,13.47
2023-05-18T00:12:53.236Z,13.44
2023-05-18T00:15:22.330Z,13.40
2023-05-18T00:17:50.779Z,13.31
2023-05-18T00:20:22.299Z,13.22
2023-05-18T00:22:50.834Z,13.18
2023-05-18T00:25:19.011Z,13.11
2023-05-18T00:27:49.967Z,13.06
2023-05-18T00:30:20.033Z,12.98
2023-05-18T00:32:48.104Z,12.97
2023-05-18T00:35:16.485Z,12.97
2023-05-18T00:37:44.614Z,12.95
2023-05-18T00:40:12.923Z,13.00
2023-05-18T00:42:40.957Z,13.02
2023-05-18T00:45:11.308Z,13.04
2023-05-18T00:47:39.995Z,13.01
2023-05-18T00:50:08.250Z,13.02
2023-05-18T00:52:36.676Z,13.02
2023-05-18T00:55:06.252Z,13.00
2023-05-18T00:57:34.383Z,13.03
2023-05-18T01:00:07.340Z,13.00
2023-05-18T01:02:37.195Z,12.96
2023-05-18T01:05:06.058Z,12.96
2023-05-18T01:07:34.415Z,12.98
2023-05-18T01:10:02.552Z,12.98
2023-05-18T01:12:37.397Z,12.97
2023-05-18T01:15:10.353Z,12.98
2023-05-18T01:18:00.982Z,12.96
2023-05-18T01:20:37.857Z,12.95
2023-05-18T01:23:29.884Z,12.94
2023-05-18T01:25:58.044Z,12.93
2023-05-18T01:28:33.310Z,12.87
2023-05-18T01:31:01.658Z,12.87
2023-05-18T01:33:29.661Z,12.88
2023-05-18T01:35:57.722Z,12.83
2023-05-18T01:38:28.387Z,12.80
2023-05-18T01:41:18.771Z,12.77
2023-05-18T01:44:09.787Z,12.74
2023-05-18T01:46:56.866Z,12.75
2023-05-18T01:49:46.368Z,12.70
2023-05-18T01:52:27.086Z,12.67
2023-05-18T01:55:00.501Z,12.67
2023-05-18T01:57:31.373Z,12.66
2023-05-18T02:00:07.784Z,12.62
2023-05-18T02:02:44.733Z,12.61
2023-05-18T02:05:14.045Z,12.60
2023-05-18T02:07:44.192Z,12.59
2023-05-18T02:10:12.736Z,12.59
2023-05-18T02:12:40.844Z,12.60
2023-05-18T02:15:10.671Z,12.60
2023-05-18T02:17:39.114Z,12.61
2023-05-18T02:20:08.206Z,12.61
2023-05-18T02:22:37.171Z,12.61
2023-05-18T02:25:05.810Z,12.61
2023-05-18T02:27:36.070Z,12.61
2023-05-18T02:30:05.465Z,12.63
2023-05-18T02:32:38.765Z,12.62
2023-05-18T02:35:09.425Z,12.59
2023-05-18T02:37:40.188Z,12.56
2023-05-18T02:40:13.580Z,12.57
2023-05-18T02:42:42.456Z,12.57
2023-05-18T02:45:12.145Z,12.54
2023-05-18T02:47:41.195Z,12.56
2023-05-18T02:50:09.830Z,12.58
2023-05-18T02:52:38.747Z,12.58
2023-05-18T02:55:07.281Z,12.58
2023-05-18T02:57:57.448Z,12.61
2023-05-18T03:00:34.564Z,12.63
2023-05-18T03:03:02.938Z,12.65
2023-05-18T03:05:31.391Z,12.67
2023-05-18T03:07:59.574Z,12.66
2023-05-18T03:10:27.800Z,12.66
2023-05-18T03:12:55.745Z,12.66
2023-05-18T03:15:23.745Z,12.61
2023-05-18T03:17:51.956Z,12.63
2023-05-18T03:20:21.831Z,12.63
2023-05-18T03:22:49.877Z,12.67
2023-05-18T03:25:18.362Z,12.70
2023-05-18T03:27:46.857Z,12.69
2023-05-18T03:30:15.096Z,12.64
2023-05-18T03:32:43.402Z,12.64
2023-05-18T03:35:11.639Z,12.68
2023-05-18T03:37:39.985Z,12.65
2023-05-18T03:40:11.226Z,12.68
2023-05-18T03:42:41.114Z,12.75
2023-05-18T03:45:11.222Z,12.74
2023-05-18T03:47:41.231Z,12.76
2023-05-18T03:50:10.288Z,12.73
2023-05-18T03:52:39.414Z,12.75
2023-05-18T03:55:08.344Z,12.81
2023-05-18T03:57:36.553Z,12.84
2023-05-18T04:00:09.287Z,12.86
2023-05-18T04:02:45.595Z,12.83
2023-05-18T04:05:14.509Z,12.80
2023-05-18T04:07:46.758Z,12.78
2023-05-18T04:10:15.260Z,12.78
2023-05-18T04:12:44.300Z,12.71
2023-05-18T04:15:14.679Z,12.71
2023-05-18T04:17:45.816Z,12.72
2023-05-18T04:20:14.887Z,12.76
2023-05-18T04:22:46.854Z,12.75
2023-05-18T04:25:16.504Z,12.72
2023-05-18T04:27:49.890Z,12.69
2023-05-18T04:30:22.661Z,12.64
2023-05-18T04:32:52.221Z,12.52
2023-05-18T04:35:20.600Z,12.52
2023-05-18T04:37:48.773Z,12.43
2023-05-18T04:40:19.530Z,12.37
2023-05-18T04:42:51.406Z,12.31
2023-05-18T04:45:29.311Z,12.26
2023-05-18T04:47:58.782Z,12.22
2023-05-18T04:50:28.148Z,12.18
2023-05-18T04:52:58.325Z,12.15
2023-05-18T04:55:29.014Z,12.15
2023-05-18T04:58:10.588Z,12.11
2023-05-18T05:00:38.768Z,12.12
2023-05-18T05:03:06.976Z,12.12
2023-05-18T05:05:35.695Z,12.13
2023-05-18T05:08:06.660Z,12.14
2023-05-18T05:10:36.201Z,12.13
2023-05-18T05:13:04.871Z,12.13
2023-05-18T05:15:34.250Z,12.15
2023-05-18T05:18:02.575Z,12.13
2023-05-18T05:20:31.434Z,12.13
2023-05-18T05:23:00.673Z,12.10
2023-05-18T05:25:29.159Z,12.09
2023-05-18T05:27:57.420Z,12.07
2023-05-18T05:30:25.817Z,12.06
2023-05-18T05:32:54.268Z,12.04
2023-05-18T05:35:24.977Z,12.01
2023-05-18T05:37:53.452Z,12.02
2023-05-18T05:40:22.154Z,12.01
2023-05-18T05:42:51.203Z,11.99
2023-05-18T05:45:19.391Z,11.99
2023-05-18T05:47:50.823Z,12.02
2023-05-18T05:50:21.241Z,12.06
2023-05-18T05:52:50.961Z,12.05
2023-05-18T05:55:20.212Z,12.07
2023-05-18T05:57:48.771Z,12.11
2023-05-18T06:00:17.665Z,12.14
2023-05-18T06:02:53.274Z,12.17
2023-05-18T06:05:39.658Z,12.20
2023-05-18T06:08:10.449Z,12.21
2023-05-18T06:10:42.078Z,12.22
2023-05-18T06:13:10.971Z,12.25
2023-05-18T06:16:08.326Z,12.29
2023-05-18T06:18:36.997Z,12.32
2023-05-18T06:21:06.716Z,12.34
2023-05-18T06:23:34.968Z,12.37
2023-05-18T06:26:03.408Z,12.35
2023-05-18T06:28:48.428Z,12.40
2023-05-18T06:31:36.778Z,12.41
2023-05-18T06:34:20.754Z,12.49
2023-05-18T06:36:51.482Z,12.47
2023-05-18T06:39:19.772Z,12.56
2023-05-18T06:41:48.078Z,12.59
2023-05-18T06:44:23.181Z,12.64
2023-05-18T06:47:11.868Z,12.64
2023-05-18T06:49:40.100Z,12.67
2023-05-18T06:52:12.241Z,12.70
2023-05-18T06:54:49.763Z,12.74
2023-05-18T06:57:19.568Z,12.79
2023-05-18T06:59:55.537Z,12.84
2023-05-18T07:02:24.125Z,12.90
2023-05-18T07:04:53.596Z,12.94
2023-05-18T07:07:23.122Z,12.98
2023-05-18T07:09:54.997Z,13.02
2023-05-18T07:12:23.568Z,13.02
2023-05-18T07:14:52.065Z,13.00
2023-05-18T07:17:20.424Z,13.06
2023-05-18T07:19:48.883Z,13.09
2023-05-18T07:22:18.130Z,13.04
2023-05-18T07:24:47.854Z,12.99
2023-05-18T07:27:16.039Z,13.00
2023-05-18T07:29:44.155Z,13.00
2023-05-18T07:32:13.360Z,12.96
2023-05-18T07:34:43.691Z,12.93
2023-05-18T07:37:13.036Z,12.96
2023-05-18T07:39:41.681Z,13.01
2023-05-18T07:42:11.556Z,13.04
2023-05-18T07:44:39.719Z,13.10
2023-05-18T07:47:08.511Z,13.14
2023-05-18T07:49:39.135Z,13.20
2023-05-18T07:52:09.159Z,13.25
2023-05-18T07:54:37.333Z,13.29
2023-05-18T07:57:05.765Z,13.28
2023-05-18T07:59:36.387Z,13.28
2023-05-18T08:02:05.849Z,13.35
2023-05-18T08:04:34.383Z,13.41
2023-05-18T08:07:03.347Z,13.44
2023-05-18T08:09:31.489Z,13.53
2023-05-18T08:12:00.056Z,13.60
2023-05-18T08:14:29.309Z,13.64
2023-05-18T08:16:59.994Z,13.68
2023-05-18T08:19:29.556Z,13.73
2023-05-18T08:21:59.119Z,13.76
2023-05-18T08:24:27.461Z,13.73
2023-05-18T08:27:01.045Z,13.79
2023-05-18T08:29:29.571Z,13.84
2023-05-18T08:31:57.808Z,13.82
2023-05-18T08:34:25.954Z,13.86
2023-05-18T08:36:54.423Z,13.98
2023-05-18T08:39:23.270Z,14.09
2023-05-18T08:42:00.533Z,14.17
2023-05-18T08:44:49.150Z,14.30
2023-05-18T08:47:17.705Z,14.44
2023-05-18T08:49:52.126Z,14.58
2023-05-18T08:52:27.768Z,14.73
2023-05-18T08:55:00.298Z,14.90
2023-05-18T08:57:31.344Z,15.08
2023-05-18T09:00:06.004Z,15.35
2023-05-18T09:02:37.004Z,15.62
2023-05-18T09:05:08.125Z,15.78
2023-05-18T09:07:39.599Z,15.94
2023-05-18T09:10:10.677Z,16.11
2023-05-18T09:12:41.724Z,16.33
2023-05-18T09:15:17.039Z,16.55
2023-05-18T09:17:46.519Z,16.75
2023-05-18T09:20:17.045Z,16.82
2023-05-18T09:22:45.985Z,17.05
2023-05-18T09:25:17.153Z,17.05
2023-05-18T09:27:46.324Z,17.07
2023-05-18T09:30:14.659Z,17.24
2023-05-18T09:32:43.652Z,17.53
2023-05-18T09:35:15.276Z,17.48
2023-05-18T09:37:45.725Z,17.62
2023-05-18T09:40:14.317Z,17.70
2023-05-18T09:42:45.087Z,17.66
2023-05-18T09:45:19.109Z,17.79
2023-05-18T09:47:50.068Z,17.97
2023-05-18T09:50:24.761Z,18.06
2023-05-18T09:52:54.921Z,18.20
2023-05-18T09:55:23.229Z,18.54
2023-05-18T09:57:53.184Z,18.76
2023-05-18T10:00:24.206Z,19.06
2023-05-18T10:02:54.041Z,19.22
2023-05-18T10:05:35.722Z,19.45
2023-05-18T10:08:05.772Z,19.37
2023-05-18T10:10:45.849Z,19.27
2023-05-18T10:13:20.251Z,19.29
2023-05-18T10:15:51.142Z,19.25
2023-05-18T10:18:29.532Z,19.40
2023-05-18T10:21:00.553Z,19.66
2023-05-18T10:23:37.079Z,20.04
2023-05-18T10:26:07.498Z,20.26
2023-05-18T10:28:43.251Z,20.23
2023-05-18T10:31:12.642Z,20.44
2023-05-18T10:33:45.004Z,20.62
2023-05-18T10:36:15.859Z,20.36
2023-05-18T10:38:49.233Z,20.58
2023-05-18T10:41:21.913Z,20.77
2023-05-18T10:43:52.456Z,21.11
2023-05-18T10:46:27.446Z,21.55
2023-05-18T10:48:58.816Z,21.79
2023-05-18T10:51:31.936Z,22.12
2023-05-18T10:54:13.438Z,22.36
2023-05-18T10:56:45.480Z,22.35
2023-05-18T10:59:15.519Z,22.25
2023-05-18T11:01:46.215Z,22.29
2023-05-18T11:04:15.037Z,22.16
2023-05-18T11:06:43.340Z,21.92
2023-05-18T11:09:25.019Z,22.03
2023-05-18T11:12:03.560Z,21.85
2023-05-18T11:14:37.069Z,22.13
2023-05-18T11:17:28.583Z,22.92
2023-05-18T11:20:10.272Z,22.52
2023-05-18T11:22:41.915Z,23.10
2023-05-18T11:25:24.713Z,23.46
2023-05-18T11:27:57.706Z,23.66
2023-05-18T11:30:48.583Z,23.54
2023-05-18T11:33:30.988Z,23.12
2023-05-18T11:36:03.304Z,22.68
2023-05-18T11:39:10.352Z,22.81
2023-05-18T11:41:45.156Z,22.99
2023-05-18T11:44:18.762Z,23.25
2023-05-18T11:46:57.416Z,22.92
2023-05-18T11:49:31.626Z,23.47
2023-05-18T11:52:19.228Z,24.02
2023-05-18T11:54:54.347Z,24.07
2023-05-18T11:57:27.368Z,24.19
2023-05-18T11:59:58.448Z,24.48
2023-05-18T12:02:36.487Z,24.95
2023-05-18T12:05:11.156Z,24.69
2023-05-18T12:07:46.480Z,24.98
2023-05-18T12:10:22.187Z,25.03
2023-05-18T12:12:58.085Z,24.38
2023-05-18T12:15:38.033Z,24.14
2023-05-18T12:18:12.043Z,24.34
2023-05-18T12:20:41.137Z,24.38
2023-05-18T12:23:17.211Z,24.28
2023-05-18T12:25:49.104Z,24.19
2023-05-18T12:28:20.938Z,24.15
2023-05-18T12:30:49.357Z,23.85
2023-05-18T12:33:17.806Z,23.67
2023-05-18T12:35:48.936Z,23.46
2023-05-18T12:38:32.761Z,23.28
2023-05-18T12:41:06.664Z,23.05
2023-05-18T12:43:36.170Z,22.13
2023-05-18T12:46:06.078Z,21.93
2023-05-18T12:48:50.158Z,21.94
2023-05-18T12:51:19.705Z,21.77
2023-05-18T12:53:50.822Z,21.18
2023-05-18T12:56:21.184Z,21.04
2023-05-18T12:59:03.344Z,21.07
2023-05-18T13:01:42.081Z,20.79
2023-05-18T13:04:14.763Z,20.68
2023-05-18T13:06:43.808Z,20.35
2023-05-18T13:09:16.441Z,20.32
2023-05-18T13:12:03.680Z,20.29
2023-05-18T13:14:39.860Z,20.48
2023-05-18T13:17:08.825Z,20.62
2023-05-18T13:19:37.572Z,20.84
2023-05-18T13:22:06.010Z,21.30
2023-05-18T13:24:35.818Z,21.99
2023-05-18T13:27:04.184Z,22.33
2023-05-18T13:29:35.043Z,22.90
2023-05-18T13:32:04.909Z,23.18
2023-05-18T13:34:36.142Z,23.57
2023-05-18T13:37:05.056Z,23.91
2023-05-18T13:39:34.755Z,24.34
2023-05-18T13:42:03.343Z,24.42
2023-05-18T13:44:31.860Z,24.40
2023-05-18T13:47:00.818Z,24.26
2023-05-18T13:49:29.595Z,24.57
2023-05-18T13:52:00.292Z,24.73
2023-05-18T13:54:33.820Z,24.49
2023-05-18T13:57:02.673Z,24.35
2023-05-18T13:59:34.732Z,24.50
2023-05-18T14:02:03.773Z,23.84
2023-05-18T14:04:32.359Z,24.01
2023-05-18T14:07:01.044Z,24.21
2023-05-18T14:09:30.645Z,23.66
2023-05-18T14:12:00.460Z,23.43
2023-05-18T14:14:28.944Z,22.34
2023-05-18T14:16:58.038Z,22.61
2023-05-18T14:19:27.149Z,22.70
2023-05-18T14:21:55.848Z,22.25
2023-05-18T14:24:25.687Z,21.41
2023-05-18T14:26:54.734Z,21.00
2023-05-18T14:29:26.695Z,20.83
2023-05-18T14:31:55.337Z,20.61
2023-05-18T14:34:24.069Z,20.72
2023-05-18T14:36:52.968Z,20.55
2023-05-18T14:39:22.564Z,20.67
2023-05-18T14:41:50.982Z,20.63
2023-05-18T14:44:19.686Z,20.53
2023-05-18T14:46:48.214Z,20.75
2023-05-18T14:49:16.662Z,20.64
2023-05-18T14:51:45.145Z,20.49
2023-05-18T14:54:14.394Z,20.51
2023-05-18T14:56:42.720Z,20.71
2023-05-18T14:59:12.570Z,20.69
2023-05-18T15:01:42.163Z,20.90
2023-05-18T15:04:11.793Z,20.72
2023-05-18T15:06:50.538Z,20.48
2023-05-18T15:09:20.220Z,20.61
2023-05-18T15:11:49.410Z,20.53
2023-05-18T15:14:17.914Z,20.48
2023-05-18T15:16:46.955Z,20.70
2023-05-18T15:19:15.815Z,20.98
2023-05-18T15:21:45.438Z,20.87
2023-05-18T15:24:13.979Z,20.77
2023-05-18T15:26:42.598Z,20.70
2023-05-18T15:29:10.920Z,20.69
2023-05-18T15:31:40.147Z,20.55
2023-05-18T15:34:08.360Z,20.32
2023-05-18T15:36:38.044Z,20.14
2023-05-18T15:39:06.560Z,19.94
2023-05-18T15:41:37.380Z,19.81
2023-05-18T15:44:05.932Z,19.50
2023-05-18T15:46:36.208Z,19.30
2023-05-18T15:49:04.688Z,19.37
2023-05-18T15:51:32.815Z,19.35
2023-05-18T15:54:01.750Z,19.21
2023-05-18T15:56:31.155Z,19.05
2023-05-18T15:58:59.314Z,19.08
2023-05-18T16:01:27.870Z,19.37
2023-05-18T16:03:56.280Z,19.11
2023-05-18T16:06:25.809Z,19.22
2023-05-18T16:08:56.242Z,19.27
2023-05-18T16:11:26.234Z,19.12
2023-05-18T16:14:04.544Z,19.05
2023-05-18T16:16:32.771Z,18.99
2023-05-18T16:19:02.503Z,18.80
2023-05-18T16:21:32.169Z,18.61
2023-05-18T16:24:00.253Z,18.67
2023-05-18T16:26:29.230Z,18.74
2023-05-18T16:28:58.601Z,18.50
2023-05-18T16:31:26.844Z,18.54
2023-05-18T16:33:55.139Z,18.45
2023-05-18T16:36:26.645Z,18.33
2023-05-18T16:38:54.914Z,18.40
2023-05-18T16:41:23.000Z,18.29
2023-05-18T16:43:51.251Z,18.26
2023-05-18T16:46:20.262Z,18.20
2023-05-18T16:48:48.459Z,18.19
2023-05-18T16:51:16.830Z,18.00
2023-05-18T16:53:45.142Z,17.95
2023-05-18T16:56:13.358Z,17.79
2023-05-18T16:58:41.463Z,17.66
2023-05-18T17:01:19.264Z,17.64
2023-05-18T17:03:54.875Z,17.41
2023-05-18T17:06:23.076Z,17.33
2023-05-18T17:08:57.529Z,17.32
2023-05-18T17:11:27.832Z,17.31
2023-05-18T17:13:58.126Z,17.35
2023-05-18T17:16:27.352Z,17.29
2023-05-18T17:18:58.126Z,17.07
2023-05-18T17:21:28.584Z,17.07
2023-05-18T17:23:56.868Z,17.03
2023-05-18T17:26:25.956Z,16.94
2023-05-18T17:28:56.496Z,16.85
2023-05-18T17:31:24.607Z,16.80
2023-05-18T17:33:54.801Z,16.73
2023-05-18T17:36:24.571Z,16.67
2023-05-18T17:38:54.389Z,16.56
2023-05-18T17:41:22.654Z,16.48
2023-05-18T17:43:52.004Z,16.47
2023-05-18T17:46:20.276Z,16.44
2023-05-18T17:48:49.034Z,16.40
2023-05-18T17:51:17.423Z,16.32
2023-05-18T17:53:46.347Z,16.25
2023-05-18T17:56:14.487Z,16.20
2023-05-18T17:58:42.852Z,16.17
2023-05-18T18:01:13.761Z,16.11
2023-05-18T18:03:41.995Z,16.05
2023-05-18T18:06:10.217Z,16.00
2023-05-18T18:08:38.350Z,15.97
2023-05-18T18:11:09.035Z,15.94
2023-05-18T18:13:37.763Z,15.93
2023-05-18T18:16:06.477Z,15.92
2023-05-18T18:18:39.215Z,15.91
2023-05-18T18:21:08.108Z,15.85
2023-05-18T18:23:37.386Z,15.85
2023-05-18T18:26:06.572Z,15.86
2023-05-18T18:28:34.980Z,15.85
2023-05-18T18:31:03.500Z,15.79
2023-05-18T18:33:33.109Z,15.76
2023-05-18T18:36:03.894Z,15.74
2023-05-18T18:38:34.064Z,15.71
2023-05-18T18:41:04.509Z,15.68
2023-05-18T18:43:35.136Z,15.69
2023-05-18T18:46:03.381Z,15.66
2023-05-18T18:48:31.612Z,15.62
2023-05-18T18:51:02.747Z,15.58
2023-05-18T18:53:30.830Z,15.57
2023-05-18T18:55:59.999Z,15.54
2023-05-18T18:58:28.364Z,15.50
2023-05-18T19:00:57.731Z,15.32
2023-05-18T19:03:26.355Z,15.33
2023-05-18T19:05:54.421Z,15.33
2023-05-18T19:08:22.474Z,15.27
2023-05-18T19:10:50.857Z,15.23
2023-05-18T19:13:18.972Z,15.21
2023-05-18T19:15:49.442Z,15.19
2023-05-18T19:18:17.902Z,15.12
2023-05-18T19:20:46.016Z,15.09
2023-05-18T19:23:14.036Z,15.07
2023-05-18T19:25:42.613Z,15.04
2023-05-18T19:28:10.732Z,15.00
2023-05-18T19:30:38.957Z,14.96
2023-05-18T19:33:07.729Z,14.96
2023-05-18T19:35:36.219Z,14.91
2023-05-18T19:38:04.206Z,14.84
2023-05-18T19:40:32.361Z,14.84
2023-05-18T19:43:01.720Z,14.81
2023-05-18T19:45:30.287Z,14.76
2023-05-18T19:47:59.938Z,14.72
2023-05-18T19:50:28.526Z,14.72
2023-05-18T19:52:56.981Z,14.70
2023-05-18T19:55:25.635Z,14.70
2023-05-18T19:57:54.199Z,14.66
2023-05-18T20:00:22.431Z,14.61
2023-05-18T20:02:51.020Z,14.60
2023-05-18T20:05:20.770Z,14.56
2023-05-18T20:07:49.360Z,14.54
2023-05-18T20:10:18.669Z,14.50
2023-05-18T20:12:46.903Z,14.52
2023-05-18T20:15:15.071Z,14.48
2023-05-18T20:17:45.576Z,14.43
2023-05-18T20:20:13.725Z,14.40
2023-05-18T20:22:42.424Z,14.38
2023-05-18T20:25:12.158Z,14.35
2023-05-18T20:27:40.415Z,14.29
2023-05-18T20:30:10.442Z,14.24
2023-05-18T20:32:38.675Z,14.22
2023-05-18T20:35:07.194Z,14.19
2023-05-18T20:37:35.297Z,14.17
2023-05-18T20:40:09.071Z,14.17
2023-05-18T20:42:40.935Z,14.16
2023-05-18T20:45:09.931Z,14.13
2023-05-18T20:47:38.951Z,14.12
2023-05-18T20:50:08.437Z,14.14
2023-05-18T20:52:36.678Z,14.15
2023-05-18T20:55:05.066Z,14.12
2023-05-18T20:57:35.184Z,14.11
2023-05-18T21:00:04.424Z,14.10
2023-05-18T21:02:33.753Z,14.13
2023-05-18T21:05:02.768Z,14.11
2023-05-18T21:07:33.261Z,14.08
2023-05-18T21:10:02.541Z,14.04
2023-05-18T21:12:30.816Z,14.02
2023-05-18T21:14:58.947Z,14.01
2023-05-18T21:17:27.024Z,14.01
2023-05-18T21:19:55.747Z,14.00
2023-05-18T21:22:23.885Z,13.97
2023-05-18T21:24:52.087Z,13.95
2023-05-18T21:27:20.147Z,13.93
2023-05-18T21:29:48.656Z,13.91
2023-05-18T21:32:17.354Z,13.87
2023-05-18T21:34:45.787Z,13.84
2023-05-18T21:37:15.461Z,13.83
2023-05-18T21:39:46.831Z,13.80
2023-05-18T21:42:16.182Z,13.78
2023-05-18T21:44:44.153Z,13.72
2023-05-18T21:47:12.261Z,13.69
2023-05-18T21:49:40.466Z,13.66
2023-05-18T21:52:08.373Z,13.62
2023-05-18T21:54:36.897Z,13.59
2023-05-18T21:57:05.272Z,13.54
2023-05-18T21:59:33.346Z,13.49
2023-05-18T22:02:02.158Z,13.42
2023-05-18T22:04:30.572Z,13.42
2023-05-18T22:06:58.981Z,13.39
2023-05-18T22:09:27.000Z,13.37
2023-05-18T22:11:56.249Z,13.36
2023-05-18T22:14:24.306Z,13.35
2023-05-18T22:16:52.370Z,13.34
2023-05-18T22:19:21.075Z,13.33
2023-05-18T22:21:53.508Z,13.32
2023-05-18T22:24:21.626Z,13.32
2023-05-18T22:26:49.815Z,13.32
2023-05-18T22:29:17.842Z,13.31
2023-05-18T22:31:46.199Z,13.32
2023-05-18T22:34:14.259Z,13.33
2023-05-18T22:36:42.278Z,13.31
2023-05-18T22:39:11.071Z,13.29
2023-05-18T22:41:40.062Z,13.29
2023-05-18T22:44:08.056Z,13.30
2023-05-18T22:46:36.376Z,13.29
2023-05-18T22:49:06.630Z,13.28
2023-05-18T22:51:35.777Z,13.26
2023-05-18T22:54:03.839Z,13.25
2023-05-18T22:56:31.924Z,13.26
2023-05-18T22:59:00.106Z,13.26
2023-05-18T23:01:28.403Z,13.25
2023-05-18T23:03:56.824Z,13.26
2023-05-18T23:06:25.769Z,13.25
2023-05-18T23:08:55.202Z,13.20
2023-05-18T23:11:23.305Z,13.17
2023-05-18T23:13:51.414Z,13.13
2023-05-18T23:16:20.682Z,13.08
2023-05-18T23:18:50.554Z,13.04
2023-05-18T23:21:18.881Z,12.99
2023-05-18T23:23:47.348Z,12.91
2023-05-18T23:26:15.386Z,12.86
2023-05-18T23:28:43.442Z,12.80
2023-05-18T23:31:11.596Z,12.74
2023-05-18T23:33:40.105Z,12.71
2023-05-18T23:36:09.043Z,12.67
2023-05-18T23:38:41.139Z,12.64
2023-05-18T23:41:10.582Z,12.61
2023-05-18T23:43:39.029Z,12.58
2023-05-18T23:46:07.982Z,12.57
2023-05-18T23:48:36.539Z,12.56
2023-05-18T23:51:05.775Z,12.50
2023-05-18T23:53:35.294Z,12.46
2023-05-18T23:56:04.796Z,12.41
2023-05-18T23:58:33.817Z,12.42
